sensor_id;sensor_type;location;lat;lon;timestamp;temperature;humidity
49821;DHT22;36893;52.520;13.450;2023-05-27T00:07:02;25.40;60.10
49821;DHT22;36893;52.520;13.450;2023-05-27T00:17:03;25.30;59.40
49821;DHT22;36893;52.520;13.450;2023-05-27T00:27:04;25.30;59.40
49821;DHT22;36893;52.520;13.450;2023-05-27T00:37:05;25.30;59.40
49821;DHT22;36893;52.520;13.450;2023-05-27T00:47:06;25.30;59.30
49821;DHT22;36893;52.520;13.450;2023-05-27T00:57:07;25.30;59.30
49821;DHT22;36893;52.520;13.450;2023-05-27T01:17:35;25.30;59.30
49821;DHT22;36893;52.520;13.450;2023-05-27T01:27:37;25.30;59.30
49821;DHT22;36893;52.520;13.450;2023-05-27T01:37:41;25.30;59.20
49821;DHT22;36893;52.520;13.450;2023-05-27T01:47:44;25.30;59.20
49821;DHT22;36893;52.520;13.450;2023-05-27T01:57:45;25.30;59.20
49821;DHT22;36893;52.520;13.450;2023-05-27T02:07:46;25.30;59.20
49821;DHT22;36893;52.520;13.450;2023-05-27T02:17:46;25.30;59.20
49821;DHT22;36893;52.520;13.450;2023-05-27T02:27:51;25.30;59.20
49821;DHT22;36893;52.520;13.450;2023-05-27T02:37:52;25.30;59.20
49821;DHT22;36893;52.520;13.450;2023-05-27T02:47:53;25.20;59.10
49821;DHT22;36893;52.520;13.450;2023-05-27T02:57:55;25.20;59.00
49821;DHT22;36893;52.520;13.450;2023-05-27T03:07:56;25.20;59.10
49821;DHT22;36893;52.520;13.450;2023-05-27T03:17:57;25.20;59.10
49821;DHT22;36893;52.520;13.450;2023-05-27T03:27:58;25.20;59.10
49821;DHT22;36893;52.520;13.450;2023-05-27T03:37:59;25.20;59.00
49821;DHT22;36893;52.520;13.450;2023-05-27T03:47:59;25.20;59.00
49821;DHT22;36893;52.520;13.450;2023-05-27T03:58:00;25.20;59.10
49821;DHT22;36893;52.520;13.450;2023-05-27T04:08:03;25.20;59.10
49821;DHT22;36893;52.520;13.450;2023-05-27T04:18:03;25.10;59.10
49821;DHT22;36893;52.520;13.450;2023-05-27T04:28:05;25.20;59.10
49821;DHT22;36893;52.520;13.450;2023-05-27T04:38:05;25.10;59.20
49821;DHT22;36893;52.520;13.450;2023-05-27T04:48:09;25.10;59.30
49821;DHT22;36893;52.520;13.450;2023-05-27T04:58:10;25.10;59.20
49821;DHT22;36893;52.520;13.450;2023-05-27T05:08:11;25.10;59.20
49821;DHT22;36893;52.520;13.450;2023-05-27T05:18:12;25.10;59.30
49821;DHT22;36893;52.520;13.450;2023-05-27T05:28:12;25.10;59.30
49821;DHT22;36893;52.520;13.450;2023-05-27T05:38:13;25.10;59.30
49821;DHT22;36893;52.520;13.450;2023-05-27T05:48:13;25.10;59.30
49821;DHT22;36893;52.520;13.450;2023-05-27T05:58:14;25.10;59.30
49821;DHT22;36893;52.520;13.450;2023-05-27T06:08:15;25.10;59.30
49821;DHT22;36893;52.520;13.450;2023-05-27T06:18:16;25.10;59.30
49821;DHT22;36893;52.520;13.450;2023-05-27T06:28:16;25.10;59.30
49821;DHT22;36893;52.520;13.450;2023-05-27T06:38:17;25.10;59.40
49821;DHT22;36893;52.520;13.450;2023-05-27T06:48:18;25.10;59.40
49821;DHT22;36893;52.520;13.450;2023-05-27T06:58:18;25.10;59.40
49821;DHT22;36893;52.520;13.450;2023-05-27T07:08:19;25.10;59.50
49821;DHT22;36893;52.520;13.450;2023-05-27T07:18:20;25.20;59.50
49821;DHT22;36893;52.520;13.450;2023-05-27T07:28:20;25.20;59.50
49821;DHT22;36893;52.520;13.450;2023-05-27T07:38:21;25.20;59.60
49821;DHT22;36893;52.520;13.450;2023-05-27T07:48:22;25.20;59.60
49821;DHT22;36893;52.520;13.450;2023-05-27T07:58:23;25.20;59.60
49821;DHT22;36893;52.520;13.450;2023-05-27T08:08:23;25.30;59.70
49821;DHT22;36893;52.520;13.450;2023-05-27T08:18:24;25.20;59.00
49821;DHT22;36893;52.520;13.450;2023-05-27T08:28:24;25.00;58.50
49821;DHT22;36893;52.520;13.450;2023-05-27T08:38:25;24.90;58.00
49821;DHT22;36893;52.520;13.450;2023-05-27T08:48:26;24.90;57.70
49821;DHT22;36893;52.520;13.450;2023-05-27T08:58:27;25.00;57.30
49821;DHT22;36893;52.520;13.450;2023-05-27T09:08:28;25.10;56.90
49821;DHT22;36893;52.520;13.450;2023-05-27T09:18:33;25.20;56.90
49821;DHT22;36893;52.520;13.450;2023-05-27T09:28:36;25.20;56.70
49821;DHT22;36893;52.520;13.450;2023-05-27T09:38:37;25.30;56.60
49821;DHT22;36893;52.520;13.450;2023-05-27T09:48:38;25.30;56.60
49821;DHT22;36893;52.520;13.450;2023-05-27T09:58:39;25.40;56.70
49821;DHT22;36893;52.520;13.450;2023-05-27T10:08:41;25.40;56.90
49821;DHT22;36893;52.520;13.450;2023-05-27T10:18:43;25.40;57.00
49821;DHT22;36893;52.520;13.450;2023-05-27T10:28:43;25.40;57.10
49821;DHT22;36893;52.520;13.450;2023-05-27T10:39:05;25.40;57.30
49821;DHT22;36893;52.520;13.450;2023-05-27T10:49:25;25.50;57.30
49821;DHT22;36893;52.520;13.450;2023-05-27T10:59:35;25.50;57.40
49821;DHT22;36893;52.520;13.450;2023-05-27T11:09:54;25.50;57.30
49821;DHT22;36893;52.520;13.450;2023-05-27T11:19:55;25.60;57.30
49821;DHT22;36893;52.520;13.450;2023-05-27T11:29:56;25.60;57.30
49821;DHT22;36893;52.520;13.450;2023-05-27T11:39:57;25.70;57.30
49821;DHT22;36893;52.520;13.450;2023-05-27T11:49:57;25.80;57.30
49821;DHT22;36893;52.520;13.450;2023-05-27T11:59:58;25.80;57.20
49821;DHT22;36893;52.520;13.450;2023-05-27T12:09:58;25.90;57.20
49821;DHT22;36893;52.520;13.450;2023-05-27T12:19:59;25.90;57.10
49821;DHT22;36893;52.520;13.450;2023-05-27T12:30:00;26.00;57.00
49821;DHT22;36893;52.520;13.450;2023-05-27T12:40:00;26.00;56.90
49821;DHT22;36893;52.520;13.450;2023-05-27T12:50:06;26.10;56.80
49821;DHT22;36893;52.520;13.450;2023-05-27T13:00:07;26.10;57.30
49821;DHT22;36893;52.520;13.450;2023-05-27T13:10:12;26.10;56.80
49821;DHT22;36893;52.520;13.450;2023-05-27T13:20:21;26.10;56.70
49821;DHT22;36893;52.520;13.450;2023-05-27T13:30:23;26.10;56.70
49821;DHT22;36893;52.520;13.450;2023-05-27T13:40:24;26.00;56.60
49821;DHT22;36893;52.520;13.450;2023-05-27T13:50:24;26.10;56.50
49821;DHT22;36893;52.520;13.450;2023-05-27T14:00:25;26.00;56.40
49821;DHT22;36893;52.520;13.450;2023-05-27T14:10:26;26.00;56.30
49821;DHT22;36893;52.520;13.450;2023-05-27T14:20:27;26.00;56.30
49821;DHT22;36893;52.520;13.450;2023-05-27T14:30:27;26.00;56.40
49821;DHT22;36893;52.520;13.450;2023-05-27T14:40:28;26.00;56.20
49821;DHT22;36893;52.520;13.450;2023-05-27T14:50:28;26.00;56.10
49821;DHT22;36893;52.520;13.450;2023-05-27T15:00:29;26.00;56.10
49821;DHT22;36893;52.520;13.450;2023-05-27T15:10:30;26.00;56.00
49821;DHT22;36893;52.520;13.450;2023-05-27T15:20:31;26.00;55.90
49821;DHT22;36893;52.520;13.450;2023-05-27T15:30:32;26.00;55.90
49821;DHT22;36893;52.520;13.450;2023-05-27T15:40:32;26.00;55.90
49821;DHT22;36893;52.520;13.450;2023-05-27T15:50:36;26.00;55.80
49821;DHT22;36893;52.520;13.450;2023-05-27T16:00:41;26.00;55.70
49821;DHT22;36893;52.520;13.450;2023-05-27T16:10:50;26.00;55.70
49821;DHT22;36893;52.520;13.450;2023-05-27T16:20:52;26.00;55.60
49821;DHT22;36893;52.520;13.450;2023-05-27T16:30:52;26.00;55.60
49821;DHT22;36893;52.520;13.450;2023-05-27T16:40:53;26.00;55.50
49821;DHT22;36893;52.520;13.450;2023-05-27T16:50:54;26.00;55.50
49821;DHT22;36893;52.520;13.450;2023-05-27T17:00:57;26.00;55.40
49821;DHT22;36893;52.520;13.450;2023-05-27T17:10:58;26.00;55.30
49821;DHT22;36893;52.520;13.450;2023-05-27T17:20:59;26.00;55.30
49821;DHT22;36893;52.520;13.450;2023-05-27T17:31:00;26.00;55.20
49821;DHT22;36893;52.520;13.450;2023-05-27T17:41:01;26.00;55.20
49821;DHT22;36893;52.520;13.450;2023-05-27T17:51:03;26.00;55.10
49821;DHT22;36893;52.520;13.450;2023-05-27T18:01:04;26.00;55.00
49821;DHT22;36893;52.520;13.450;2023-05-27T18:11:05;26.00;55.00
49821;DHT22;36893;52.520;13.450;2023-05-27T18:21:06;26.00;54.90
49821;DHT22;36893;52.520;13.450;2023-05-27T18:31:07;26.00;54.90
49821;DHT22;36893;52.520;13.450;2023-05-27T18:41:08;26.00;54.80
49821;DHT22;36893;52.520;13.450;2023-05-27T18:51:08;26.00;54.80
49821;DHT22;36893;52.520;13.450;2023-05-27T19:01:09;26.00;54.70
49821;DHT22;36893;52.520;13.450;2023-05-27T19:11:10;26.00;54.80
49821;DHT22;36893;52.520;13.450;2023-05-27T19:21:11;26.00;54.90
49821;DHT22;36893;52.520;13.450;2023-05-27T19:31:12;26.00;54.90
49821;DHT22;36893;52.520;13.450;2023-05-27T19:41:13;26.00;55.00
49821;DHT22;36893;52.520;13.450;2023-05-27T19:51:13;25.90;55.00
49821;DHT22;36893;52.520;13.450;2023-05-27T20:01:14;26.00;55.10
49821;DHT22;36893;52.520;13.450;2023-05-27T20:11:15;25.90;55.00
49821;DHT22;36893;52.520;13.450;2023-05-27T20:21:16;25.90;55.10
49821;DHT22;36893;52.520;13.450;2023-05-27T20:31:17;25.90;55.20
49821;DHT22;36893;52.520;13.450;2023-05-27T20:41:20;26.00;55.30
49821;DHT22;36893;52.520;13.450;2023-05-27T20:51:22;25.90;55.20
49821;DHT22;36893;52.520;13.450;2023-05-27T21:01:25;26.00;55.30
49821;DHT22;36893;52.520;13.450;2023-05-27T21:11:29;25.90;55.20
49821;DHT22;36893;52.520;13.450;2023-05-27T21:21:30;26.00;55.30
49821;DHT22;36893;52.520;13.450;2023-05-27T21:31:30;25.90;55.20
49821;DHT22;36893;52.520;13.450;2023-05-27T21:41:33;25.90;55.20
49821;DHT22;36893;52.520;13.450;2023-05-27T21:51:34;25.90;55.30
49821;DHT22;36893;52.520;13.450;2023-05-27T22:01:35;25.90;55.90
49821;DHT22;36893;52.520;13.450;2023-05-27T22:11:36;25.90;55.30
49821;DHT22;36893;52.520;13.450;2023-05-27T22:21:36;25.90;55.30
49821;DHT22;36893;52.520;13.450;2023-05-27T22:31:37;25.80;55.30
49821;DHT22;36893;52.520;13.450;2023-05-27T22:41:38;25.80;55.30
49821;DHT22;36893;52.520;13.450;2023-05-27T22:51:38;25.80;55.30
49821;DHT22;36893;52.520;13.450;2023-05-27T23:01:39;25.80;55.40
49821;DHT22;36893;52.520;13.450;2023-05-27T23:11:39;25.80;55.40
49821;DHT22;36893;52.520;13.450;2023-05-27T23:21:40;25.80;55.40
49821;DHT22;36893;52.520;13.450;2023-05-27T23:31:41;25.80;55.40
49821;DHT22;36893;52.520;13.450;2023-05-27T23:41:42;25.80;55.50
49821;DHT22;36893;52.520;13.450;2023-05-27T23:51:43;25.70;55.40
